Terminal Aerodrome Forecast
Issued by NWS

Home | Current Version | Previous Version | Graphics & Text | Print | Product List | Glossary On
Versions: 1 2 3 4 5 6 7 8 9 10 11 12 13 14 15 16 17
615
FTUS41 KCLE 171133
TAFFDY
TAF
KFDY 171133Z 1712/1812 17008KT P6SM SCT030 OVC080
      TEMPO 1712/1716 3SM -TSRA OVC030CB
     FM171600 19010KT P6SM SCT030 BKN050
      TEMPO 1716/1720 3SM -TSRA OVC030CB
     FM172000 21010G20KT P6SM VCTS SCT040CB BKN060
     FM172300 23008KT P6SM SCT060 BKN200=

USA.gov is the U.S. government's official web portal to all federal, state and local government web resources and services.